Buffalo, New York
Current Conditions -  °F | °C
As of 2:54 PM on Saturday 27 Dec 2014 (Local Time) from KBUF Reporting Station
Scattered Clouds Scattered Clouds  
Wind Chill: 53°   Ceiling: Unl
Heat Index: 53°   Visibility: 10mi
Dew Point: 40°   Wind: 18mph
Humidity: 61%   Direction: 190°S
Pressure: 29.96"   Gusts: NA
Location:  42.89°N, 78.88°W
Report Text: KBUF 271954Z 19016KT 10SM FEW030 FEW040 FEW160 SCT200 SCT250 12/04 A2996 RMK AO2 SLP151 T01170044
Loading
Personal Weather Stations






























Interactive Weather Map New forecast layout! Learn more

10-Day Weather Forecast

Advertisements
Track Severe Weather on mobile